Time;durP1;ratioP1;P1;durP2;ratioP2;P2;SDS_P1;SDS_P2;PMS_P1;PMS_P2;Temp;Humidity;BMP_temperature;BMP_pressure;BME280_temperature;BME280_humidity;BME280_pressure;Samples;Min_cycle;Max_cycle;Signal;HPM_P1;HPM_P2
2020/12/22 00:00:47;;;;;;;8.10;4.93;;;;;;;11.68;96.38;100608.66;5066253;28;20013;-78
2020/12/22 00:03:13;;;;;;;10.05;4.60;;;;;;;11.65;96.61;100601.75;5052201;28;20094;-79
2020/12/22 00:05:38;;;;;;;6.90;4.75;;;;;;;11.67;96.60;100607.78;5047044;28;20063;-79
2020/12/22 00:08:10;;;;;;;9.68;5.18;;;;;;;11.66;96.69;100597.47;5062126;28;20024;-80
2020/12/22 00:10:35;;;;;;;8.43;5.15;;;;;;;11.69;96.69;100584.66;5045314;28;20103;-77
2020/12/22 00:13:01;;;;;;;7.43;4.20;;;;;;;11.71;96.69;100589.00;5067713;28;20069;-78
2020/12/22 00:15:26;;;;;;;10.63;4.00;;;;;;;11.67;96.81;100586.34;5051242;28;20282;-79
2020/12/22 00:17:51;;;;;;;10.98;4.55;;;;;;;11.58;97.01;100592.22;5066559;28;20499;-80
2020/12/22 00:20:16;;;;;;;8.18;5.57;;;;;;;11.61;96.83;100576.81;5049149;28;20028;-78
2020/12/22 00:22:45;;;;;;;7.93;5.45;;;;;;;11.69;96.91;100582.06;5060904;28;20171;-79
2020/12/22 00:25:10;;;;;;;8.93;5.40;;;;;;;11.59;97.06;100581.09;5065560;28;20031;-79
2020/12/22 00:27:36;;;;;;;9.13;5.47;;;;;;;11.58;96.94;100587.06;5048722;28;20020;-78
2020/12/22 00:30:03;;;;;;;10.23;6.15;;;;;;;11.69;96.99;100584.66;5047469;28;20279;-77
2020/12/22 00:32:28;;;;;;;9.63;6.25;;;;;;;11.67;96.83;100586.34;5045070;28;20532;-79
2020/12/22 00:34:54;;;;;;;9.82;5.38;;;;;;;11.63;97.08;100589.72;5062394;28;20038;-79
2020/12/22 00:37:19;;;;;;;9.35;5.55;;;;;;;11.61;97.12;100587.13;5060810;28;20024;-79
2020/12/22 00:39:44;;;;;;;6.90;4.43;;;;;;;11.64;96.96;100591.44;5070462;28;20071;-79
2020/12/22 00:42:09;;;;;;;7.70;4.70;;;;;;;11.66;96.89;100582.91;5073507;28;20272;-79
2020/12/22 00:44:35;;;;;;;10.45;4.72;;;;;;;11.70;96.98;100581.22;5052819;28;20358;-78
2020/12/22 00:47:00;;;;;;;8.35;4.70;;;;;;;11.64;96.98;100574.28;5045017;28;20029;-79
2020/12/22 00:49:25;;;;;;;9.80;4.40;;;;;;;11.66;97.04;100580.31;5046090;28;20024;-78
2020/12/22 00:51:50;;;;;;;6.57;3.67;;;;;;;11.70;97.09;100565.78;5051786;28;20107;-78
2020/12/22 00:54:16;;;;;;;5.47;3.43;;;;;;;11.66;96.97;100574.31;5064840;28;20263;-78
2020/12/22 00:56:41;;;;;;;5.93;3.38;;;;;;;11.61;96.92;100566.53;5062063;28;20842;-79
2020/12/22 00:59:07;;;;;;;5.13;3.15;;;;;;;11.67;96.99;100565.75;5045976;28;20546;-78
2020/12/22 01:01:32;;;;;;;5.25;3.08;;;;;;;11.66;96.95;100562.31;5038139;28;20049;-79
2020/12/22 01:03:58;;;;;;;6.60;2.90;;;;;;;11.65;97.25;100568.31;5047041;28;20020;-80
2020/12/22 01:06:23;;;;;;;4.18;2.70;;;;;;;11.67;97.18;100555.47;5044126;28;20259;-78
2020/12/22 01:08:49;;;;;;;6.80;2.95;;;;;;;11.66;97.18;100559.75;5043966;28;20536;-79
2020/12/22 01:11:14;;;;;;;3.75;2.45;;;;;;;11.69;97.00;100564.06;5048524;28;20391;-78
2020/12/22 01:13:40;;;;;;;6.50;2.70;;;;;;;11.68;97.13;100563.19;5048525;28;20071;-80
2020/12/22 01:16:05;;;;;;;4.75;2.72;;;;;;;11.71;96.75;100572.69;5066010;28;20297;-79
2020/12/22 01:18:30;;;;;;;4.95;2.70;;;;;;;11.72;96.56;100585.59;5049885;28;20033;-79
2020/12/22 01:20:55;;;;;;;3.17;2.10;;;;;;;11.75;96.47;100579.63;5063173;28;20032;-79
2020/12/22 01:23:21;;;;;;;5.88;2.63;;;;;;;11.79;96.38;100571.13;5065908;28;20103;-80
2020/12/22 01:25:46;;;;;;;4.07;2.10;;;;;;;11.80;96.41;100596.03;5048276;28;20016;-80
2020/12/22 01:28:11;;;;;;;6.80;2.07;;;;;;;11.75;96.33;100585.63;5048734;28;20349;-79
2020/12/22 01:30:37;;;;;;;3.50;2.43;;;;;;;11.78;96.40;100592.56;5061595;28;20279;-79
2020/12/22 01:33:03;;;;;;;;;;;;;;;11.73;96.54;100592.47;5051664;28;20033;-80
2020/12/22 01:35:28;;;;;;;5.80;1.80;;;;;;;11.76;96.49;100599.38;5045036;28;19916;-79
2020/12/22 01:37:54;;;;;;;2.97;1.77;;;;;;;11.74;96.52;100609.63;5045960;28;20048;-79
2020/12/22 01:40:19;;;;;;;5.70;2.30;;;;;;;11.72;96.66;100611.31;5072362;28;20353;-81
2020/12/22 01:42:44;;;;;;;3.67;2.20;;;;;;;11.72;96.56;100616.47;5064255;28;20286;-78
2020/12/22 01:45:13;;;;;;;5.85;2.30;;;;;;;11.74;96.45;100601.06;5064002;28;20321;-79
2020/12/22 01:47:47;;;;;;;3.88;2.38;;;;;;;11.75;96.34;100610.50;5066392;28;20036;-79
2020/12/22 01:50:15;;;;;;;4.68;2.20;;;;;;;11.77;96.30;100606.25;5061978;28;20031;-78
2020/12/22 01:52:41;;;;;;;5.53;2.63;;;;;;;11.80;96.25;100609.75;5066372;28;20082;-79
2020/12/22 01:55:06;;;;;;;5.18;2.90;;;;;;;11.82;96.14;100620.94;5066366;28;20040;-79
2020/12/22 01:57:32;;;;;;;11.40;3.67;;;;;;;11.87;96.01;100610.72;5046935;28;20051;-79
2020/12/22 01:59:57;;;;;;;6.68;2.97;;;;;;;11.92;95.86;100615.91;5050425;28;20024;-79
2020/12/22 02:02:23;;;;;;;8.88;3.08;;;;;;;11.92;96.03;100623.63;5064095;28;20442;-80
2020/12/22 02:04:49;;;;;;;5.18;2.92;;;;;;;11.92;95.80;100623.63;5061517;28;20033;-80
2020/12/22 02:07:14;;;;;;;4.93;2.70;;;;;;;11.90;95.65;100615.03;5061542;28;20024;-78
2020/12/22 02:09:40;;;;;;;6.30;2.72;;;;;;;11.98;95.46;100626.28;5066280;28;20474;-80
2020/12/22 02:12:05;;;;;;;6.68;2.80;;;;;;;11.97;95.48;100622.00;5046300;28;20020;-80
2020/12/22 02:14:30;;;;;;;6.97;2.17;;;;;;;12.00;95.25;100616.88;5068364;28;20508;-78
2020/12/22 02:16:56;;;;;;;8.70;1.93;;;;;;;11.96;95.07;100625.41;5045476;28;20115;-79
2020/12/22 02:19:22;;;;;;;6.28;1.70;;;;;;;11.98;95.18;100632.31;5046487;28;20614;-81
2020/12/22 02:21:47;;;;;;;4.18;1.58;;;;;;;11.94;95.24;100643.41;5048665;28;20024;-79
2020/12/22 02:24:13;;;;;;;4.50;1.33;;;;;;;11.95;95.32;100636.53;5059244;28;20435;-79
2020/12/22 02:26:38;;;;;;;3.45;1.10;;;;;;;11.93;95.38;100633.09;5062580;28;20027;-78
2020/12/22 02:29:03;;;;;;;4.30;1.20;;;;;;;11.89;95.36;100634.75;5043930;28;20212;-79
2020/12/22 02:31:29;;;;;;;6.07;1.10;;;;;;;11.88;95.58;100643.31;5042212;28;20029;-80
2020/12/22 02:33:54;;;;;;;6.20;0.85;;;;;;;11.86;95.62;100651.88;5065599;28;20104;-79
2020/12/22 02:36:19;;;;;;;4.65;1.25;;;;;;;11.81;95.84;100642.38;5042435;28;20024;-79
2020/12/22 02:38:45;;;;;;;9.02;1.52;;;;;;;11.83;95.51;100642.38;5040604;28;20039;-82
2020/12/22 02:41:11;;;;;;;7.65;1.40;;;;;;;11.80;95.64;100650.06;5049854;28;20035;-78
2020/12/22 02:43:36;;;;;;;4.80;1.00;;;;;;;11.75;95.75;100662.84;5043353;28;20021;-76
2020/12/22 02:46:02;;;;;;;8.85;1.60;;;;;;;11.75;95.59;100661.97;5062299;28;20033;-76
2020/12/22 02:48:27;;;;;;;9.63;1.40;;;;;;;11.83;95.27;100670.69;5042721;28;20397;-79
2020/12/22 02:50:52;;;;;;;6.97;1.35;;;;;;;11.81;95.12;100665.53;5050118;28;20051;-77
2020/12/22 02:53:18;;;;;;;9.70;1.88;;;;;;;11.78;95.27;100669.78;5060444;28;20422;-79
2020/12/22 02:55:43;;;;;;;11.00;1.67;;;;;;;11.82;95.07;100674.13;5064161;28;20029;-79
2020/12/22 02:58:08;;;;;;;12.32;1.70;;;;;;;11.77;95.33;100670.56;5048536;28;20421;-78
2020/12/22 03:00:34;;;;;;;14.60;2.30;;;;;;;11.79;95.16;100669.78;5066161;28;20036;-79
2020/12/22 03:02:59;;;;;;;13.10;1.63;;;;;;;11.86;94.77;100675.03;5053048;28;20362;-78
2020/12/22 03:05:24;;;;;;;11.87;1.70;;;;;;;11.83;94.63;100683.56;5071764;28;20555;-79
2020/12/22 03:07:50;;;;;;;8.47;1.43;;;;;;;11.87;94.44;100667.31;5053712;28;20277;-78
2020/12/22 03:10:17;;;;;;;10.07;1.65;;;;;;;11.85;94.37;100681.88;5063376;28;20346;-79
2020/12/22 03:12:44;;;;;;;11.98;1.90;;;;;;;11.86;94.44;100685.31;5067300;28;20044;-80
2020/12/22 03:15:10;;;;;;;9.88;2.10;;;;;;;11.82;94.36;100680.13;5068144;28;20033;-78
2020/12/22 03:17:36;;;;;;;8.10;1.92;;;;;;;11.81;94.78;100668.09;5068963;28;20035;-78
2020/12/22 03:20:03;;;;;;;10.10;1.52;;;;;;;11.74;94.79;100671.41;5051464;28;20035;-79
2020/12/22 03:22:28;;;;;;;11.23;2.08;;;;;;;11.77;94.73;100666.28;5073961;28;20484;-79
2020/12/22 03:24:54;;;;;;;13.30;1.70;;;;;;;11.74;94.94;100663.69;5045749;28;20035;-80
2020/12/22 03:27:19;;;;;;;11.10;2.13;;;;;;;11.78;94.80;100670.63;5051030;28;20695;-79
2020/12/22 03:29:44;;;;;;;13.13;2.57;;;;;;;11.78;94.74;100675.78;5047350;28;20055;-80
2020/12/22 03:32:10;;;;;;;9.43;1.60;;;;;;;11.78;94.59;100672.34;5052691;28;20343;-79
2020/12/22 03:34:35;;;;;;;12.32;1.65;;;;;;;11.79;94.62;100686.94;5049142;28;20290;-79
2020/12/22 03:37:01;;;;;;;7.40;1.27;;;;;;;11.78;94.53;100683.50;5071925;28;20028;-78
2020/12/22 03:39:26;;;;;;;9.70;1.23;;;;;;;11.76;94.54;100695.44;5051058;28;20029;-78
2020/12/22 03:41:52;;;;;;;8.55;1.38;;;;;;;11.75;94.78;100698.00;5072056;28;20031;-79
2020/12/22 03:44:17;;;;;;;7.55;1.67;;;;;;;11.71;95.19;100697.09;5050635;28;20053;-78
2020/12/22 03:46:49;;;;;;;8.93;1.77;;;;;;;11.74;94.87;100706.56;5050724;28;20012;-81
2020/12/22 03:49:18;;;;;;;12.02;2.03;;;;;;;11.73;94.80;100704.81;5065616;28;20068;-79
2020/12/22 03:51:44;;;;;;;5.65;1.83;;;;;;;11.75;94.47;100709.16;5051141;28;20501;-79
2020/12/22 03:54:10;;;;;;;8.48;1.40;;;;;;;11.71;94.72;100691.94;5066630;28;20025;-78
2020/12/22 03:56:36;;;;;;;10.77;1.38;;;;;;;11.75;94.44;100687.69;5069063;28;20032;-78
2020/12/22 03:59:02;;;;;;;17.92;1.80;;;;;;;11.78;93.97;100686.06;5054512;28;20037;-78
2020/12/22 04:01:27;;;;;;;13.65;2.55;;;;;;;11.78;94.02;100700.66;5071837;28;20031;-79
2020/12/22 04:03:52;;;;;;;11.27;1.85;;;;;;;11.77;93.98;100696.31;5067974;28;20174;-79
2020/12/22 04:06:18;;;;;;;23.15;3.25;;;;;;;11.69;94.13;100693.59;5069669;28;20043;-79
2020/12/22 04:08:43;;;;;;;10.65;1.80;;;;;;;11.73;94.17;100695.41;5048239;28;20449;-81
2020/12/22 04:11:08;;;;;;;20.02;2.17;;;;;;;11.73;93.89;100702.25;5044592;28;20032;-79
2020/12/22 04:13:35;;;;;;;13.60;2.07;;;;;;;11.72;93.78;100703.97;5048516;28;20056;-80
2020/12/22 04:16:04;;;;;;;11.90;1.35;;;;;;;11.73;93.97;100700.53;5063950;28;20287;-78
2020/12/22 04:18:29;;;;;;;12.43;1.98;;;;;;;11.71;93.61;100709.94;5066535;28;20033;-79
2020/12/22 04:20:57;;;;;;;9.57;1.38;;;;;;;11.69;93.92;100706.44;5045272;28;20024;-79
2020/12/22 04:23:22;;;;;;;10.52;2.08;;;;;;;11.64;94.06;100709.78;5045901;28;20036;-80
2020/12/22 04:25:48;;;;;;;7.47;1.33;;;;;;;11.71;93.75;100714.22;5045081;28;20130;-79
2020/12/22 04:28:13;;;;;;;11.95;1.77;;;;;;;11.70;93.74;100730.47;5044158;28;20021;-79
2020/12/22 04:30:38;;;;;;;9.30;1.85;;;;;;;11.65;93.29;100720.13;5049472;28;20123;-81
2020/12/22 04:33:04;;;;;;;12.77;2.57;;;;;;;11.63;93.72;100718.34;5050515;28;20028;-80
2020/12/22 04:35:29;;;;;;;15.93;2.88;;;;;;;11.56;93.92;100725.09;5065798;28;20361;-78
2020/12/22 04:37:54;;;;;;;11.03;2.50;;;;;;;11.54;93.72;100726.78;5065857;28;20044;-79
2020/12/22 04:40:19;;;;;;;11.37;2.17;;;;;;;11.52;93.94;100736.19;5069148;28;20718;-80
2020/12/22 04:42:45;;;;;;;12.10;2.47;;;;;;;11.48;93.97;100740.41;5051637;28;20270;-80
2020/12/22 04:45:11;;;;;;;10.52;1.70;;;;;;;11.50;93.75;100745.59;5053280;28;20346;-79
2020/12/22 04:47:37;;;;;;;11.13;1.88;;;;;;;11.50;93.84;100737.88;5049164;28;20017;-81
2020/12/22 04:50:04;;;;;;;9.40;1.83;;;;;;;11.54;93.50;100742.22;5059344;28;20037;-78
2020/12/22 04:52:31;;;;;;;12.88;2.42;;;;;;;11.56;93.46;100750.84;5047002;28;20056;-78
2020/12/22 04:54:57;;;;;;;9.32;1.55;;;;;;;11.59;93.22;100750.88;5051668;28;20074;-80
2020/12/22 04:57:31;;;;;;;12.32;2.03;;;;;;;11.53;93.32;100750.78;5051359;28;20020;-79
2020/12/22 04:59:57;;;;;;;10.68;1.80;;;;;;;11.53;93.22;100754.22;5052864;28;20032;-78
2020/12/22 05:02:23;;;;;;;;;;;;;;;11.48;93.19;100761.00;5048641;28;20044;-78
2020/12/22 05:04:49;;;;;;;9.93;1.58;;;;;;;11.53;92.96;100768.78;5045075;28;19912;-80
2020/12/22 05:07:14;;;;;;;16.52;2.75;;;;;;;11.55;92.69;100772.25;5045054;28;20031;-79
2020/12/22 05:09:40;;;;;;;17.43;2.20;;;;;;;11.57;92.56;100772.28;5050725;28;20107;-79
2020/12/22 05:12:05;;;;;;;12.27;2.15;;;;;;;11.54;92.57;100770.53;5071499;28;20648;-79
2020/12/22 05:14:31;;;;;;;10.75;1.52;;;;;;;11.58;92.53;100776.59;5046723;28;20024;-79
2020/12/22 05:16:56;;;;;;;11.85;1.67;;;;;;;11.57;92.67;100780.88;5109677;22;20051;-79
2020/12/22 05:19:22;;;;;;;14.50;2.30;;;;;;;11.53;93.07;100791.94;5119366;27;20027;-81
2020/12/22 05:21:50;;;;;;;20.80;3.42;;;;;;;11.50;93.24;100797.03;5107423;28;20052;-81
2020/12/22 05:24:15;;;;;;;17.85;2.65;;;;;;;11.55;93.14;100797.97;5131973;27;20019;-80
2020/12/22 05:26:42;;;;;;;13.98;1.83;;;;;;;11.57;92.84;100803.16;5107374;28;20030;-81
2020/12/22 05:29:12;;;;;;;17.83;2.00;;;;;;;11.53;93.30;100799.66;5122229;28;20750;-79
2020/12/22 05:31:51;;;;;;;12.15;1.67;;;;;;;11.59;92.65;100810.06;5104934;28;20019;-80
2020/12/22 05:34:18;;;;;;;14.60;2.70;;;;;;;11.55;92.49;100808.28;5102876;28;20015;-80
2020/12/22 05:36:45;;;;;;;13.57;2.15;;;;;;;11.56;92.35;100814.28;5121588;28;20027;-80
2020/12/22 05:39:12;;;;;;;6.63;1.15;;;;;;;11.50;92.61;100817.63;5122784;28;20034;-80
2020/12/22 05:41:39;;;;;;;9.95;1.88;;;;;;;11.50;92.39;100812.47;5104163;28;20076;-82
2020/12/22 05:44:05;;;;;;;;;;;;;;;11.51;92.45;100811.63;5105491;28;20023;-80
2020/12/22 05:46:32;;;;;;;9.07;1.58;;;;;;;11.47;92.53;100833.00;5102689;28;19926;-82
2020/12/22 05:49:06;;;;;;;13.25;2.25;;;;;;;11.45;92.91;100826.94;5121874;28;20020;-80
2020/12/22 05:51:31;;;;;;;17.02;2.15;;;;;;;11.50;92.41;100825.31;5121801;28;20532;-80
2020/12/22 05:54:04;;;;;;;12.55;2.08;;;;;;;11.44;92.73;100835.50;5123314;28;20105;-78
2020/12/22 05:56:29;;;;;;;10.50;2.15;;;;;;;11.48;92.49;100840.75;5122088;28;20105;-80
2020/12/22 05:58:54;;;;;;;11.88;1.92;;;;;;;11.45;92.53;100848.41;5122788;28;20028;-80
2020/12/22 06:01:31;;;;;;;15.32;2.85;;;;;;;11.40;92.56;100851.72;5104363;28;20027;-81
2020/12/22 06:04:00;;;;;;;13.15;2.65;;;;;;;11.41;92.61;100841.47;5104287;28;20083;-82
2020/12/22 06:06:27;;;;;;;12.32;1.95;;;;;;;11.46;92.25;100839.84;5120218;28;20120;-81
2020/12/22 06:08:53;;;;;;;16.23;1.85;;;;;;;11.37;92.65;100843.91;5119404;28;20019;-82
2020/12/22 06:11:19;;;;;;;;;;;;;;;11.37;92.00;100843.91;5123442;28;20027;-81
2020/12/22 06:13:47;;;;;;;17.10;2.10;;;;;;;11.33;91.63;100854.97;5121448;28;19979;-82
2020/12/22 06:16:18;;;;;;;13.15;1.85;;;;;;;11.25;91.89;100841.09;5104330;28;20079;-80
2020/12/22 06:18:45;;;;;;;19.25;2.38;;;;;;;11.26;92.27;100856.56;5121297;28;20031;-79
2020/12/22 06:21:11;;;;;;;16.77;2.35;;;;;;;11.28;91.61;100849.75;5122071;28;20030;-79
2020/12/22 06:23:37;;;;;;;15.25;2.55;;;;;;;11.26;92.28;100846.28;5105945;28;20106;-82
2020/12/22 06:26:06;;;;;;;20.38;2.30;;;;;;;11.29;92.16;100860.88;5105853;28;22358;-83
2020/12/22 06:28:32;;;;;;;17.27;2.17;;;;;;;11.32;91.82;100858.38;5124301;28;20061;-80
2020/12/22 06:30:57;;;;;;;19.83;2.25;;;;;;;11.25;92.26;100859.09;5126505;28;20031;-82
2020/12/22 06:33:25;;;;;;;14.45;2.22;;;;;;;11.30;91.94;100873.78;5126194;28;20031;-80
2020/12/22 06:36:05;;;;;;;23.80;3.00;;;;;;;11.32;91.84;100872.09;5107570;28;20023;-82
2020/12/22 06:38:55;;;;;;;13.82;1.98;;;;;;;11.28;92.13;100883.16;5108699;28;20062;-82
2020/12/22 06:41:32;;;;;;;12.65;1.67;;;;;;;11.32;91.57;100879.81;5125418;28;20068;-80
2020/12/22 06:44:29;;;;;;;14.77;2.33;;;;;;;11.31;91.83;100882.38;5123354;28;20083;-82
2020/12/22 06:46:56;;;;;;;14.43;2.17;;;;;;;11.29;91.66;100886.59;5106265;28;20030;-82
2020/12/22 06:49:48;;;;;;;16.98;1.85;;;;;;;11.35;91.44;100899.59;5104575;28;20016;-81
2020/12/22 06:52:27;;;;;;;14.00;1.88;;;;;;;11.31;91.30;100897.78;5105195;28;20023;-81
2020/12/22 06:54:52;;;;;;;12.02;2.15;;;;;;;11.34;91.18;100905.56;5127102;28;20015;-81
2020/12/22 06:57:47;;;;;;;13.27;1.60;;;;;;;11.29;91.20;100907.19;5126956;28;20065;-81
2020/12/22 07:00:23;;;;;;;11.57;1.77;;;;;;;11.29;91.61;100915.75;5123520;28;20027;-81
2020/12/22 07:02:49;;;;;;;18.20;1.63;;;;;;;11.24;91.82;100904.50;5107559;28;20027;-81
2020/12/22 07:05:35;;;;;;;15.80;2.13;;;;;;;11.23;91.96;100919.06;5125958;28;20476;-81
2020/12/22 07:08:02;;;;;;;13.10;2.45;;;;;;;11.22;92.16;100917.34;5107051;28;20030;-82
2020/12/22 07:10:28;;;;;;;14.10;1.65;;;;;;;11.20;91.89;100916.44;5108550;28;20023;-80
2020/12/22 07:12:56;;;;;;;14.88;1.75;;;;;;;11.23;91.82;100926.78;5108641;28;20119;-80
2020/12/22 07:15:30;;;;;;;14.45;2.30;;;;;;;11.21;91.94;100925.88;5127227;28;20027;-81
2020/12/22 07:18:10;;;;;;;12.40;1.90;;;;;;;11.10;91.80;100922.22;5109678;28;20030;-80
2020/12/22 07:20:38;;;;;;;12.05;2.17;;;;;;;11.09;91.88;100929.91;5126475;28;20019;-81
2020/12/22 07:23:04;;;;;;;22.15;2.80;;;;;;;11.02;91.84;100943.41;5126912;28;20027;-81
2020/12/22 07:25:29;;;;;;;20.40;2.72;;;;;;;11.06;91.91;100930.69;5108022;28;20026;-79
2020/12/22 07:27:54;;;;;;;21.33;2.88;;;;;;;11.04;91.92;100942.63;5126998;28;20020;-82
2020/12/22 07:30:20;;;;;;;22.10;3.28;;;;;;;11.07;91.73;100945.28;5126961;28;20019;-81
2020/12/22 07:32:46;;;;;;;20.23;2.88;;;;;;;11.10;91.42;100953.06;5127582;28;20105;-80
2020/12/22 07:35:12;;;;;;;23.27;3.55;;;;;;;11.08;91.54;100954.75;5125281;28;20022;-81
2020/12/22 07:37:38;;;;;;;20.75;2.72;;;;;;;11.06;91.64;100960.69;5125591;28;20030;-81
2020/12/22 07:40:09;;;;;;;20.42;2.78;;;;;;;11.04;91.84;100967.47;5125930;28;20035;-81
2020/12/22 07:42:34;;;;;;;19.35;2.90;;;;;;;11.08;91.62;100977.00;5125187;28;20012;-81
2020/12/22 07:45:05;;;;;;;28.45;3.30;;;;;;;11.08;91.28;100983.03;5106613;28;20058;-82
2020/12/22 07:47:30;;;;;;;27.92;3.88;;;;;;;11.13;91.36;100983.13;5122659;28;20022;-81
2020/12/22 07:49:55;;;;;;;18.50;2.40;;;;;;;11.13;91.03;100983.13;5104890;28;20110;-80
2020/12/22 07:52:21;;;;;;;25.20;4.25;;;;;;;11.12;90.88;100995.13;5124825;28;20016;-81
2020/12/22 07:54:57;;;;;;;22.08;3.60;;;;;;;11.20;90.79;101003.88;5106248;28;20102;-80
2020/12/22 07:57:22;;;;;;;22.83;3.20;;;;;;;11.23;90.33;101006.50;5103850;28;20016;-81
2020/12/22 07:59:51;;;;;;;28.85;3.25;;;;;;;11.17;90.77;101026.06;5122648;28;20288;-80
2020/12/22 08:02:22;;;;;;;27.90;3.45;;;;;;;11.12;90.68;101018.25;5102231;28;20043;-80
2020/12/22 08:04:48;;;;;;;26.90;4.03;;;;;;;11.15;90.67;101036.31;5100895;28;20038;-81
2020/12/22 08:07:13;;;;;;;21.33;3.05;;;;;;;11.20;90.42;101016.72;5104701;28;20024;-81
2020/12/22 08:09:39;;;;;;;20.55;3.60;;;;;;;11.20;90.28;101037.28;5105604;28;20023;-79
2020/12/22 08:12:05;;;;;;;;;;;;;;;11.20;90.45;101034.72;5122651;28;20035;-77
2020/12/22 08:14:33;;;;;;;26.23;3.42;;;;;;;11.22;90.22;101055.34;5105066;28;19911;-80
2020/12/22 08:17:03;;;;;;;40.40;4.15;;;;;;;11.21;90.56;101059.59;5123950;28;20050;-80
2020/12/22 08:19:30;;;;;;;22.73;3.83;;;;;;;11.23;90.19;101065.66;5105959;28;20024;-81
2020/12/22 08:21:56;;;;;;;33.67;3.45;;;;;;;11.21;90.54;101069.88;5122039;28;20028;-81
2020/12/22 08:24:22;;;;;;;30.55;4.03;;;;;;;11.19;90.46;101070.69;5103948;28;20030;-78
2020/12/22 08:26:49;;;;;;;33.92;4.30;;;;;;;11.19;90.64;101073.25;5103937;28;20023;-79
2020/12/22 08:29:16;;;;;;;27.73;3.72;;;;;;;11.15;90.92;101080.03;5102697;28;20023;-82
2020/12/22 08:31:42;;;;;;;24.67;3.45;;;;;;;11.19;90.30;101081.84;5102691;28;20023;-79
2020/12/22 08:34:09;;;;;;;22.17;3.53;;;;;;;11.15;91.00;101086.88;5103677;28;20016;-80
2020/12/22 08:36:35;;;;;;;30.73;3.92;;;;;;;11.19;90.61;101094.69;5122173;28;20034;-81
2020/12/22 08:39:14;;;;;;;24.80;4.20;;;;;;;11.20;91.24;101093.88;5102026;28;20027;-81
2020/12/22 08:41:41;;;;;;;28.42;4.47;;;;;;;11.20;91.59;101109.28;5103601;28;20115;-80
2020/12/22 08:44:08;;;;;;;32.63;4.63;;;;;;;11.10;91.57;101109.91;5104215;28;20035;-79
2020/12/22 08:46:40;;;;;;;40.90;4.65;;;;;;;11.11;92.02;101124.50;5120962;28;20030;-80
2020/12/22 08:49:26;;;;;;;31.10;3.67;;;;;;;11.13;91.74;101125.41;5103873;28;20039;-81
2020/12/22 08:51:56;;;;;;;26.70;3.92;;;;;;;11.12;91.92;101138.22;5120602;28;20039;-80
2020/12/22 08:54:25;;;;;;;36.42;4.60;;;;;;;11.06;92.34;101141.50;5103090;28;20032;-80
2020/12/22 08:56:51;;;;;;;28.58;3.55;;;;;;;11.07;92.45;101138.09;5104269;28;20023;-79
2020/12/22 08:59:16;;;;;;;30.50;3.28;;;;;;;11.00;92.72;101141.31;5124673;28;20042;-79
2020/12/22 09:01:49;;;;;;;29.83;3.67;;;;;;;10.95;93.13;101145.47;5122846;28;20028;-79
2020/12/22 09:04:15;;;;;;;27.83;3.72;;;;;;;11.00;92.97;101151.59;5121321;28;20023;-79
2020/12/22 09:06:42;;;;;;;;;;;;;;;11.00;93.19;101161.00;5102157;28;20400;-78
2020/12/22 09:09:23;;;;;;;41.03;4.65;;;;;;;10.91;93.60;101170.22;5120352;28;19972;-78
2020/12/22 09:11:48;;;;;;;30.98;3.85;;;;;;;10.97;93.78;101181.50;5118972;28;20540;-79
2020/12/22 09:14:16;;;;;;;32.13;4.63;;;;;;;10.91;93.92;101184.78;5119283;28;20102;-79
2020/12/22 09:16:47;;;;;;;29.60;4.32;;;;;;;10.95;93.73;101180.59;5116362;28;20053;-77
2020/12/22 09:19:13;;;;;;;26.20;4.32;;;;;;;10.89;93.63;101194.16;5098462;28;20047;-78
2020/12/22 09:21:38;;;;;;;19.35;2.95;;;;;;;10.81;92.68;101193.06;5119343;28;20047;-80
2020/12/22 09:24:04;;;;;;;17.70;2.80;;;;;;;10.77;92.69;101204.97;5108249;28;20110;-81
2020/12/22 09:26:29;;;;;;;26.08;3.20;;;;;;;10.75;92.66;101210.88;5108516;28;20016;-80
2020/12/22 09:28:54;;;;;;;25.25;2.95;;;;;;;10.68;92.76;101211.50;5126445;28;20035;-79
2020/12/22 09:31:27;;;;;;;16.70;2.88;;;;;;;10.68;92.65;101226.94;5125454;28;20019;-79
2020/12/22 09:33:52;;;;;;;30.60;4.28;;;;;;;10.60;92.64;101232.72;5105452;28;20055;-79
2020/12/22 09:36:18;;;;;;;22.70;3.40;;;;;;;10.58;92.90;101234.38;5107551;28;20504;-79
2020/12/22 09:38:45;;;;;;;22.55;3.83;;;;;;;10.55;92.92;101236.84;5128556;28;20039;-80
2020/12/22 09:41:11;;;;;;;21.97;3.63;;;;;;;10.54;93.28;101239.38;5112023;28;20028;-82
2020/12/22 09:43:36;;;;;;;20.83;3.10;;;;;;;10.54;93.56;101250.53;5129689;28;20273;-82
2020/12/22 09:46:01;;;;;;;18.73;2.80;;;;;;;10.47;93.60;101251.16;5108634;28;20308;-80
2020/12/22 09:48:27;;;;;;;17.65;2.38;;;;;;;10.48;93.93;101263.19;5127254;28;20050;-80
2020/12/22 09:50:52;;;;;;;20.23;1.90;;;;;;;10.48;93.85;101272.59;5110868;28;20019;-81
2020/12/22 09:53:19;;;;;;;10.50;2.05;;;;;;;10.45;93.67;101273.38;5109968;28;20024;-83
2020/12/22 09:55:44;;;;;;;12.65;2.55;;;;;;;10.44;94.04;101281.03;5126097;28;20049;-80
2020/12/22 09:58:09;;;;;;;12.20;1.83;;;;;;;10.38;93.92;101291.97;5126304;28;20056;-81
2020/12/22 10:00:34;;;;;;;9.47;1.77;;;;;;;10.25;93.91;101300.97;5127834;28;20029;-81
2020/12/22 10:03:00;;;;;;;13.48;2.20;;;;;;;10.18;93.88;101308.41;5110969;28;20053;-80
2020/12/22 10:05:25;;;;;;;9.50;1.30;;;;;;;9.99;93.69;101302.66;5109763;28;20027;-81
2020/12/22 10:07:50;;;;;;;11.10;2.17;;;;;;;10.02;94.28;101322.41;5127662;28;20262;-83
2020/12/22 10:10:15;;;;;;;10.80;2.03;;;;;;;9.98;94.35;101325.69;5108572;28;20274;-81
2020/12/22 10:12:41;;;;;;;9.90;1.80;;;;;;;9.98;94.73;101321.44;5123732;28;20023;-80
2020/12/22 10:15:06;;;;;;;7.03;1.53;;;;;;;10.02;94.53;101324.09;5106285;28;20678;-80
2020/12/22 10:17:31;;;;;;;9.60;1.33;;;;;;;9.95;94.23;101326.47;5110634;28;20278;-79
2020/12/22 10:19:57;;;;;;;9.40;1.63;;;;;;;9.87;94.15;101333.03;5109252;28;20277;-81
2020/12/22 10:22:22;;;;;;;7.03;2.10;;;;;;;9.94;94.48;101339.25;5127899;28;20079;-80
2020/12/22 10:24:47;;;;;;;5.57;2.05;;;;;;;9.95;94.38;101344.44;5108271;28;20023;-80
2020/12/22 10:27:13;;;;;;;6.10;2.10;;;;;;;9.92;94.00;101336.63;5109837;28;20459;-82
2020/12/22 10:29:38;;;;;;;10.10;2.77;;;;;;;9.92;93.88;101341.78;5110937;28;20027;-81
2020/12/22 10:32:03;;;;;;;9.40;3.87;;;;;;;9.93;93.71;101345.22;5126889;28;20987;-82
2020/12/22 10:34:28;;;;;;;10.50;3.60;;;;;;;10.02;93.88;101347.22;5106780;28;20081;-80
2020/12/22 10:36:54;;;;;;;15.50;4.15;;;;;;;9.95;93.26;101344.44;5106197;28;20027;-81
2020/12/22 10:39:19;;;;;;;13.80;4.30;;;;;;;9.93;93.23;101353.78;5110601;28;20114;-81
2020/12/22 10:41:45;;;;;;;13.53;4.07;;;;;;;9.91;92.97;101350.28;5108616;28;20081;-81
2020/12/22 10:44:10;;;;;;;18.15;4.63;;;;;;;9.83;92.53;101354.28;5105444;28;20032;-80
2020/12/22 10:46:35;;;;;;;12.02;3.75;;;;;;;9.79;92.67;101356.69;5106434;28;20023;-80
2020/12/22 10:49:00;;;;;;;19.70;4.32;;;;;;;9.68;92.07;101356.31;5123390;28;20077;-82
2020/12/22 10:51:26;;;;;;;12.67;5.13;;;;;;;9.79;92.77;101360.13;5109991;28;20055;-81
2020/12/22 10:53:51;;;;;;;23.27;5.03;;;;;;;9.85;92.50;101364.59;5125710;28;20277;-81
2020/12/22 10:56:17;;;;;;;17.87;4.60;;;;;;;9.81;92.24;101368.75;5124157;28;20334;-82
2020/12/22 10:58:43;;;;;;;17.63;3.70;;;;;;;9.76;91.38;101369.44;5128660;28;20023;-83
2020/12/22 11:01:08;;;;;;;14.70;4.25;;;;;;;9.74;91.07;101376.16;5109723;28;20122;-81
2020/12/22 11:03:34;;;;;;;17.65;3.88;;;;;;;9.72;90.98;101382.94;5108770;28;20024;-81
2020/12/22 11:08:33;;;;;;;10.85;4.28;;;;;;;9.79;91.04;101390.06;5126483;28;20051;-79
2020/12/22 11:10:59;;;;;;;10.95;3.25;;;;;;;9.77;90.75;101391.69;5127140;28;20039;-81
2020/12/22 11:13:24;;;;;;;15.60;3.90;;;;;;;9.81;90.37;101383.28;5125608;28;20027;-84
2020/12/22 11:15:49;;;;;;;13.87;3.00;;;;;;;9.88;90.49;101393.81;5130292;28;20289;-80
2020/12/22 11:18:14;;;;;;;13.07;3.07;;;;;;;9.95;89.86;101398.34;5132138;28;20294;-79
2020/12/22 11:20:40;;;;;;;17.40;2.47;;;;;;;10.01;89.36;101399.38;5113686;28;20115;-81
2020/12/22 11:23:05;;;;;;;13.50;2.60;;;;;;;10.03;89.16;101402.84;5111705;28;20031;-82